sensor_id;sensor_type;location;lat;lon;timestamp;P1;durP1;ratioP1;P2;durP2;ratioP2
68457;SDS011;65384;52.016;5.428;2023-08-08T00:01:26;8.90;;;3.10;;
68457;SDS011;65384;52.016;5.428;2023-08-08T00:03:51;10.23;;;3.03;;
68457;SDS011;65384;52.016;5.428;2023-08-08T00:06:16;8.73;;;2.92;;
68457;SDS011;65384;52.016;5.428;2023-08-08T00:08:42;6.15;;;2.70;;
68457;SDS011;65384;52.016;5.428;2023-08-08T00:11:07;11.05;;;3.03;;
68457;SDS011;65384;52.016;5.428;2023-08-08T00:13:32;6.25;;;2.80;;
68457;SDS011;65384;52.016;5.428;2023-08-08T00:15:58;8.80;;;2.90;;
68457;SDS011;65384;52.016;5.428;2023-08-08T00:18:23;8.68;;;3.03;;
68457;SDS011;65384;52.016;5.428;2023-08-08T00:20:49;9.20;;;3.00;;
68457;SDS011;65384;52.016;5.428;2023-08-08T00:23:14;7.65;;;2.53;;
68457;SDS011;65384;52.016;5.428;2023-08-08T00:25:39;8.25;;;2.75;;
68457;SDS011;65384;52.016;5.428;2023-08-08T00:28:05;12.10;;;2.90;;
68457;SDS011;65384;52.016;5.428;2023-08-08T00:30:30;9.02;;;2.78;;
68457;SDS011;65384;52.016;5.428;2023-08-08T00:32:56;7.68;;;2.33;;
68457;SDS011;65384;52.016;5.428;2023-08-08T00:35:21;9.02;;;2.72;;
68457;SDS011;65384;52.016;5.428;2023-08-08T00:37:47;8.88;;;2.53;;
68457;SDS011;65384;52.016;5.428;2023-08-08T00:40:13;9.02;;;2.58;;
68457;SDS011;65384;52.016;5.428;2023-08-08T00:42:38;10.48;;;2.65;;
68457;SDS011;65384;52.016;5.428;2023-08-08T00:45:04;11.88;;;2.70;;
68457;SDS011;65384;52.016;5.428;2023-08-08T00:47:32;6.05;;;2.30;;
68457;SDS011;65384;52.016;5.428;2023-08-08T00:49:59;13.57;;;2.50;;
68457;SDS011;65384;52.016;5.428;2023-08-08T00:52:25;8.73;;;2.50;;
68457;SDS011;65384;52.016;5.428;2023-08-08T00:54:52;7.22;;;2.75;;
68457;SDS011;65384;52.016;5.428;2023-08-08T00:57:18;10.45;;;2.80;;
68457;SDS011;65384;52.016;5.428;2023-08-08T00:59:43;10.02;;;2.40;;
68457;SDS011;65384;52.016;5.428;2023-08-08T01:02:09;10.05;;;2.33;;
68457;SDS011;65384;52.016;5.428;2023-08-08T01:04:34;9.38;;;2.67;;
68457;SDS011;65384;52.016;5.428;2023-08-08T01:07:16;5.28;;;2.72;;
68457;SDS011;65384;52.016;5.428;2023-08-08T01:12:29;9.80;;;2.72;;
68457;SDS011;65384;52.016;5.428;2023-08-08T01:14:54;11.95;;;2.53;;
68457;SDS011;65384;52.016;5.428;2023-08-08T01:17:20;11.65;;;2.83;;
68457;SDS011;65384;52.016;5.428;2023-08-08T01:19:46;10.07;;;2.60;;
68457;SDS011;65384;52.016;5.428;2023-08-08T01:22:14;12.10;;;3.08;;
68457;SDS011;65384;52.016;5.428;2023-08-08T01:24:42;8.18;;;2.60;;
68457;SDS011;65384;52.016;5.428;2023-08-08T01:27:09;9.77;;;2.95;;
68457;SDS011;65384;52.016;5.428;2023-08-08T01:29:36;8.65;;;2.83;;
68457;SDS011;65384;52.016;5.428;2023-08-08T01:32:02;10.55;;;2.78;;
68457;SDS011;65384;52.016;5.428;2023-08-08T01:34:28;9.60;;;2.63;;
68457;SDS011;65384;52.016;5.428;2023-08-08T01:39:29;11.10;;;2.70;;
68457;SDS011;65384;52.016;5.428;2023-08-08T01:41:55;13.68;;;3.55;;
68457;SDS011;65384;52.016;5.428;2023-08-08T01:44:22;9.50;;;2.60;;
68457;SDS011;65384;52.016;5.428;2023-08-08T01:46:48;9.18;;;3.03;;
68457;SDS011;65384;52.016;5.428;2023-08-08T01:49:14;12.00;;;2.70;;
68457;SDS011;65384;52.016;5.428;2023-08-08T01:51:39;10.23;;;3.15;;
68457;SDS011;65384;52.016;5.428;2023-08-08T01:54:04;14.68;;;2.95;;
68457;SDS011;65384;52.016;5.428;2023-08-08T01:56:30;6.68;;;2.80;;
68457;SDS011;65384;52.016;5.428;2023-08-08T01:58:55;8.68;;;2.70;;
68457;SDS011;65384;52.016;5.428;2023-08-08T02:01:21;9.77;;;3.00;;
68457;SDS011;65384;52.016;5.428;2023-08-08T02:03:46;15.55;;;3.38;;
68457;SDS011;65384;52.016;5.428;2023-08-08T02:06:12;7.88;;;2.83;;
68457;SDS011;65384;52.016;5.428;2023-08-08T02:08:37;7.88;;;2.55;;
68457;SDS011;65384;52.016;5.428;2023-08-08T02:11:03;8.48;;;2.60;;
68457;SDS011;65384;52.016;5.428;2023-08-08T02:13:28;14.65;;;2.97;;
68457;SDS011;65384;52.016;5.428;2023-08-08T02:15:53;12.57;;;2.92;;
68457;SDS011;65384;52.016;5.428;2023-08-08T02:18:19;9.35;;;2.88;;
68457;SDS011;65384;52.016;5.428;2023-08-08T02:20:44;12.77;;;3.30;;
68457;SDS011;65384;52.016;5.428;2023-08-08T02:23:09;16.50;;;2.97;;
68457;SDS011;65384;52.016;5.428;2023-08-08T02:25:35;11.45;;;3.20;;
68457;SDS011;65384;52.016;5.428;2023-08-08T02:28:00;11.68;;;3.50;;
68457;SDS011;65384;52.016;5.428;2023-08-08T02:30:25;8.18;;;3.40;;
68457;SDS011;65384;52.016;5.428;2023-08-08T02:32:51;8.45;;;3.05;;
68457;SDS011;65384;52.016;5.428;2023-08-08T02:35:16;15.77;;;3.25;;
68457;SDS011;65384;52.016;5.428;2023-08-08T02:37:42;11.45;;;3.53;;
68457;SDS011;65384;52.016;5.428;2023-08-08T02:40:07;15.05;;;3.70;;
68457;SDS011;65384;52.016;5.428;2023-08-08T02:42:34;12.15;;;3.47;;
68457;SDS011;65384;52.016;5.428;2023-08-08T02:44:59;13.18;;;3.63;;
68457;SDS011;65384;52.016;5.428;2023-08-08T02:47:25;13.90;;;3.78;;
68457;SDS011;65384;52.016;5.428;2023-08-08T02:49:50;12.15;;;3.50;;
68457;SDS011;65384;52.016;5.428;2023-08-08T02:52:16;14.93;;;4.47;;
68457;SDS011;65384;52.016;5.428;2023-08-08T02:54:41;12.02;;;3.90;;
68457;SDS011;65384;52.016;5.428;2023-08-08T02:57:06;9.30;;;3.90;;
68457;SDS011;65384;52.016;5.428;2023-08-08T02:59:32;8.80;;;3.67;;
68457;SDS011;65384;52.016;5.428;2023-08-08T03:01:57;13.98;;;3.85;;
68457;SDS011;65384;52.016;5.428;2023-08-08T03:04:22;12.82;;;4.03;;
68457;SDS011;65384;52.016;5.428;2023-08-08T03:06:48;14.95;;;4.25;;
68457;SDS011;65384;52.016;5.428;2023-08-08T03:09:13;10.10;;;4.03;;
68457;SDS011;65384;52.016;5.428;2023-08-08T03:11:38;9.85;;;3.65;;
68457;SDS011;65384;52.016;5.428;2023-08-08T03:14:06;12.30;;;4.50;;
68457;SDS011;65384;52.016;5.428;2023-08-08T03:16:32;12.57;;;3.95;;
68457;SDS011;65384;52.016;5.428;2023-08-08T03:18:58;12.88;;;4.25;;
68457;SDS011;65384;52.016;5.428;2023-08-08T03:21:23;12.18;;;4.63;;
68457;SDS011;65384;52.016;5.428;2023-08-08T03:23:49;11.27;;;4.60;;
68457;SDS011;65384;52.016;5.428;2023-08-08T03:26:14;13.77;;;4.60;;
68457;SDS011;65384;52.016;5.428;2023-08-08T03:28:39;16.58;;;4.70;;
68457;SDS011;65384;52.016;5.428;2023-08-08T03:31:05;18.38;;;5.20;;
68457;SDS011;65384;52.016;5.428;2023-08-08T03:33:30;12.02;;;4.43;;
68457;SDS011;65384;52.016;5.428;2023-08-08T03:35:56;15.48;;;5.07;;
68457;SDS011;65384;52.016;5.428;2023-08-08T03:38:21;15.70;;;4.85;;
68457;SDS011;65384;52.016;5.428;2023-08-08T03:40:46;18.52;;;4.85;;
68457;SDS011;65384;52.016;5.428;2023-08-08T03:43:12;16.58;;;4.63;;
68457;SDS011;65384;52.016;5.428;2023-08-08T03:45:37;10.80;;;4.90;;
68457;SDS011;65384;52.016;5.428;2023-08-08T03:48:02;12.60;;;4.53;;
68457;SDS011;65384;52.016;5.428;2023-08-08T03:50:28;12.40;;;4.95;;
68457;SDS011;65384;52.016;5.428;2023-08-08T03:52:53;16.98;;;5.05;;
68457;SDS011;65384;52.016;5.428;2023-08-08T03:55:19;16.50;;;4.90;;
68457;SDS011;65384;52.016;5.428;2023-08-08T03:57:44;12.60;;;4.32;;
68457;SDS011;65384;52.016;5.428;2023-08-08T04:00:10;18.33;;;4.70;;
68457;SDS011;65384;52.016;5.428;2023-08-08T04:02:36;14.13;;;4.53;;
68457;SDS011;65384;52.016;5.428;2023-08-08T04:05:02;13.65;;;4.85;;
68457;SDS011;65384;52.016;5.428;2023-08-08T04:07:27;18.10;;;4.97;;
68457;SDS011;65384;52.016;5.428;2023-08-08T04:09:53;12.25;;;4.78;;
68457;SDS011;65384;52.016;5.428;2023-08-08T04:12:18;13.38;;;4.60;;
68457;SDS011;65384;52.016;5.428;2023-08-08T04:14:43;14.45;;;4.30;;
68457;SDS011;65384;52.016;5.428;2023-08-08T04:17:09;12.80;;;4.50;;
68457;SDS011;65384;52.016;5.428;2023-08-08T04:19:34;12.20;;;4.35;;
68457;SDS011;65384;52.016;5.428;2023-08-08T04:21:59;17.77;;;4.70;;
68457;SDS011;65384;52.016;5.428;2023-08-08T04:24:25;18.77;;;4.38;;
68457;SDS011;65384;52.016;5.428;2023-08-08T04:26:50;14.48;;;5.00;;
68457;SDS011;65384;52.016;5.428;2023-08-08T04:29:16;15.35;;;5.00;;
68457;SDS011;65384;52.016;5.428;2023-08-08T04:31:41;14.27;;;5.10;;
68457;SDS011;65384;52.016;5.428;2023-08-08T04:34:07;12.10;;;4.47;;
68457;SDS011;65384;52.016;5.428;2023-08-08T04:36:32;13.40;;;4.75;;
68457;SDS011;65384;52.016;5.428;2023-08-08T04:38:58;12.68;;;4.38;;
68457;SDS011;65384;52.016;5.428;2023-08-08T04:41:23;17.13;;;4.60;;
68457;SDS011;65384;52.016;5.428;2023-08-08T04:43:49;21.52;;;4.95;;
68457;SDS011;65384;52.016;5.428;2023-08-08T04:46:14;12.30;;;4.43;;
68457;SDS011;65384;52.016;5.428;2023-08-08T04:48:39;16.15;;;4.88;;
68457;SDS011;65384;52.016;5.428;2023-08-08T04:51:05;15.52;;;5.00;;
68457;SDS011;65384;52.016;5.428;2023-08-08T04:53:30;16.60;;;4.97;;
68457;SDS011;65384;52.016;5.428;2023-08-08T04:55:56;15.60;;;4.70;;
68457;SDS011;65384;52.016;5.428;2023-08-08T04:58:21;16.30;;;4.85;;
68457;SDS011;65384;52.016;5.428;2023-08-08T05:00:46;18.42;;;4.80;;
68457;SDS011;65384;52.016;5.428;2023-08-08T05:03:12;11.63;;;4.50;;
68457;SDS011;65384;52.016;5.428;2023-08-08T05:05:38;11.90;;;4.28;;
68457;SDS011;65384;52.016;5.428;2023-08-08T05:08:03;12.13;;;4.65;;
68457;SDS011;65384;52.016;5.428;2023-08-08T05:10:29;14.50;;;4.35;;
68457;SDS011;65384;52.016;5.428;2023-08-08T05:12:56;11.00;;;4.35;;
68457;SDS011;65384;52.016;5.428;2023-08-08T05:15:22;13.48;;;4.43;;
68457;SDS011;65384;52.016;5.428;2023-08-08T05:17:47;12.70;;;4.75;;
68457;SDS011;65384;52.016;5.428;2023-08-08T05:20:12;13.15;;;4.10;;
68457;SDS011;65384;52.016;5.428;2023-08-08T05:22:38;14.63;;;4.88;;
68457;SDS011;65384;52.016;5.428;2023-08-08T05:25:03;11.48;;;4.10;;
68457;SDS011;65384;52.016;5.428;2023-08-08T05:27:29;11.80;;;4.28;;
68457;SDS011;65384;52.016;5.428;2023-08-08T05:29:54;11.98;;;4.15;;
68457;SDS011;65384;52.016;5.428;2023-08-08T05:32:20;13.02;;;4.00;;
68457;SDS011;65384;52.016;5.428;2023-08-08T05:34:46;9.63;;;3.83;;
68457;SDS011;65384;52.016;5.428;2023-08-08T05:37:12;12.93;;;3.78;;
68457;SDS011;65384;52.016;5.428;2023-08-08T05:39:37;7.95;;;3.45;;
68457;SDS011;65384;52.016;5.428;2023-08-08T05:42:02;9.93;;;3.38;;
68457;SDS011;65384;52.016;5.428;2023-08-08T05:44:28;7.35;;;3.30;;
68457;SDS011;65384;52.016;5.428;2023-08-08T05:46:53;9.30;;;2.60;;
68457;SDS011;65384;52.016;5.428;2023-08-08T05:49:18;9.10;;;2.72;;
68457;SDS011;65384;52.016;5.428;2023-08-08T05:51:44;4.78;;;2.30;;
68457;SDS011;65384;52.016;5.428;2023-08-08T05:54:09;4.68;;;2.05;;
68457;SDS011;65384;52.016;5.428;2023-08-08T05:56:36;9.63;;;1.95;;
68457;SDS011;65384;52.016;5.428;2023-08-08T05:59:02;5.57;;;2.00;;
68457;SDS011;65384;52.016;5.428;2023-08-08T06:01:28;6.35;;;1.70;;
68457;SDS011;65384;52.016;5.428;2023-08-08T06:03:53;4.35;;;1.63;;
68457;SDS011;65384;52.016;5.428;2023-08-08T06:06:19;2.92;;;1.40;;
68457;SDS011;65384;52.016;5.428;2023-08-08T06:08:44;9.60;;;1.80;;
68457;SDS011;65384;52.016;5.428;2023-08-08T06:11:10;3.88;;;1.45;;
68457;SDS011;65384;52.016;5.428;2023-08-08T06:13:36;5.88;;;1.55;;
68457;SDS011;65384;52.016;5.428;2023-08-08T06:16:01;2.63;;;1.30;;
68457;SDS011;65384;52.016;5.428;2023-08-08T06:18:31;4.07;;;1.42;;
68457;SDS011;65384;52.016;5.428;2023-08-08T06:20:57;6.22;;;1.77;;
68457;SDS011;65384;52.016;5.428;2023-08-08T06:23:22;3.72;;;1.48;;
68457;SDS011;65384;52.016;5.428;2023-08-08T06:25:47;5.43;;;1.60;;
68457;SDS011;65384;52.016;5.428;2023-08-08T06:28:13;7.53;;;1.83;;
68457;SDS011;65384;52.016;5.428;2023-08-08T06:30:38;6.13;;;1.38;;
68457;SDS011;65384;52.016;5.428;2023-08-08T06:33:04;14.30;;;2.10;;
68457;SDS011;65384;52.016;5.428;2023-08-08T06:35:29;13.00;;;2.42;;
68457;SDS011;65384;52.016;5.428;2023-08-08T06:37:55;3.08;;;1.10;;
68457;SDS011;65384;52.016;5.428;2023-08-08T06:40:20;7.07;;;1.50;;
68457;SDS011;65384;52.016;5.428;2023-08-08T06:42:46;8.90;;;1.50;;
68457;SDS011;65384;52.016;5.428;2023-08-08T06:45:11;10.82;;;1.40;;
68457;SDS011;65384;52.016;5.428;2023-08-08T06:47:37;12.85;;;2.10;;
68457;SDS011;65384;52.016;5.428;2023-08-08T06:50:02;5.53;;;1.02;;
68457;SDS011;65384;52.016;5.428;2023-08-08T06:52:28;4.57;;;1.30;;
68457;SDS011;65384;52.016;5.428;2023-08-08T06:54:53;5.80;;;1.23;;
68457;SDS011;65384;52.016;5.428;2023-08-08T06:57:19;3.88;;;1.10;;
68457;SDS011;65384;52.016;5.428;2023-08-08T06:59:44;4.57;;;1.67;;
68457;SDS011;65384;52.016;5.428;2023-08-08T07:02:15;2.45;;;0.90;;
68457;SDS011;65384;52.016;5.428;2023-08-08T07:04:41;4.15;;;1.00;;
68457;SDS011;65384;52.016;5.428;2023-08-08T07:07:06;3.45;;;0.98;;
68457;SDS011;65384;52.016;5.428;2023-08-08T07:09:32;5.55;;;0.95;;
68457;SDS011;65384;52.016;5.428;2023-08-08T07:11:58;1.27;;;0.70;;
68457;SDS011;65384;52.016;5.428;2023-08-08T07:14:23;3.17;;;1.00;;
68457;SDS011;65384;52.016;5.428;2023-08-08T07:16:48;5.15;;;0.88;;
68457;SDS011;65384;52.016;5.428;2023-08-08T07:19:14;4.90;;;0.82;;
68457;SDS011;65384;52.016;5.428;2023-08-08T07:21:40;6.43;;;0.90;;
68457;SDS011;65384;52.016;5.428;2023-08-08T07:24:06;2.85;;;0.85;;
68457;SDS011;65384;52.016;5.428;2023-08-08T07:26:31;4.88;;;1.00;;
68457;SDS011;65384;52.016;5.428;2023-08-08T07:28:57;4.55;;;1.00;;
68457;SDS011;65384;52.016;5.428;2023-08-08T07:31:22;1.45;;;0.80;;
68457;SDS011;65384;52.016;5.428;2023-08-08T07:33:47;3.17;;;0.70;;
68457;SDS011;65384;52.016;5.428;2023-08-08T07:36:13;1.40;;;0.63;;
68457;SDS011;65384;52.016;5.428;2023-08-08T07:38:38;1.92;;;0.80;;
68457;SDS011;65384;52.016;5.428;2023-08-08T07:41:03;1.05;;;0.77;;
68457;SDS011;65384;52.016;5.428;2023-08-08T07:43:29;3.55;;;0.95;;
68457;SDS011;65384;52.016;5.428;2023-08-08T07:45:54;4.05;;;0.98;;
68457;SDS011;65384;52.016;5.428;2023-08-08T07:48:19;1.48;;;0.70;;
68457;SDS011;65384;52.016;5.428;2023-08-08T07:50:45;1.38;;;0.70;;
68457;SDS011;65384;52.016;5.428;2023-08-08T07:53:10;2.00;;;0.60;;
68457;SDS011;65384;52.016;5.428;2023-08-08T07:55:35;2.95;;;0.80;;
68457;SDS011;65384;52.016;5.428;2023-08-08T07:58:01;2.47;;;0.77;;
68457;SDS011;65384;52.016;5.428;2023-08-08T08:00:26;3.28;;;0.70;;
68457;SDS011;65384;52.016;5.428;2023-08-08T08:02:52;1.13;;;0.60;;
68457;SDS011;65384;52.016;5.428;2023-08-08T08:05:17;3.42;;;0.70;;
68457;SDS011;65384;52.016;5.428;2023-08-08T08:07:43;1.13;;;0.60;;
68457;SDS011;65384;52.016;5.428;2023-08-08T08:10:10;1.23;;;0.50;;
68457;SDS011;65384;52.016;5.428;2023-08-08T08:12:38;3.20;;;0.70;;
68457;SDS011;65384;52.016;5.428;2023-08-08T08:15:04;1.85;;;0.57;;
68457;SDS011;65384;52.016;5.428;2023-08-08T08:17:30;1.77;;;0.80;;
68457;SDS011;65384;52.016;5.428;2023-08-08T08:19:55;2.45;;;0.57;;
68457;SDS011;65384;52.016;5.428;2023-08-08T08:22:21;2.22;;;0.55;;
68457;SDS011;65384;52.016;5.428;2023-08-08T08:24:46;2.38;;;0.60;;
68457;SDS011;65384;52.016;5.428;2023-08-08T08:27:12;2.97;;;0.80;;
68457;SDS011;65384;52.016;5.428;2023-08-08T08:29:38;2.10;;;0.60;;
68457;SDS011;65384;52.016;5.428;2023-08-08T08:32:04;2.03;;;1.02;;
68457;SDS011;65384;52.016;5.428;2023-08-08T08:34:29;3.72;;;0.50;;
68457;SDS011;65384;52.016;5.428;2023-08-08T08:36:55;2.28;;;0.63;;
68457;SDS011;65384;52.016;5.428;2023-08-08T08:39:20;0.93;;;0.60;;
68457;SDS011;65384;52.016;5.428;2023-08-08T08:41:47;1.05;;;0.50;;
68457;SDS011;65384;52.016;5.428;2023-08-08T08:44:14;1.38;;;0.52;;
68457;SDS011;65384;52.016;5.428;2023-08-08T08:46:41;2.47;;;0.40;;
68457;SDS011;65384;52.016;5.428;2023-08-08T08:49:07;2.75;;;0.82;;
68457;SDS011;65384;52.016;5.428;2023-08-08T08:51:34;0.63;;;0.57;;
68457;SDS011;65384;52.016;5.428;2023-08-08T08:54:02;2.42;;;0.70;;
68457;SDS011;65384;52.016;5.428;2023-08-08T08:56:28;2.55;;;0.57;;
68457;SDS011;65384;52.016;5.428;2023-08-08T08:58:53;1.88;;;0.60;;
68457;SDS011;65384;52.016;5.428;2023-08-08T09:01:19;1.15;;;0.70;;
68457;SDS011;65384;52.016;5.428;2023-08-08T09:03:47;1.67;;;0.40;;
68457;SDS011;65384;52.016;5.428;2023-08-08T09:06:12;3.15;;;0.43;;
68457;SDS011;65384;52.016;5.428;2023-08-08T09:08:38;3.55;;;0.60;;
68457;SDS011;65384;52.016;5.428;2023-08-08T09:11:03;2.05;;;0.70;;
68457;SDS011;65384;52.016;5.428;2023-08-08T09:13:38;1.35;;;0.68;;
68457;SDS011;65384;52.016;5.428;2023-08-08T09:16:05;2.17;;;0.70;;
68457;SDS011;65384;52.016;5.428;2023-08-08T09:18:31;0.75;;;0.50;;
68457;SDS011;65384;52.016;5.428;2023-08-08T09:20:57;1.17;;;0.50;;
68457;SDS011;65384;52.016;5.428;2023-08-08T09:23:23;0.50;;;0.47;;
68457;SDS011;65384;52.016;5.428;2023-08-08T09:25:48;0.63;;;0.50;;
68457;SDS011;65384;52.016;5.428;2023-08-08T09:28:14;1.20;;;0.50;;
68457;SDS011;65384;52.016;5.428;2023-08-08T09:30:40;1.95;;;0.60;;
68457;SDS011;65384;52.016;5.428;2023-08-08T09:33:06;1.50;;;0.50;;
68457;SDS011;65384;52.016;5.428;2023-08-08T09:35:32;1.55;;;0.70;;
68457;SDS011;65384;52.016;5.428;2023-08-08T09:37:57;1.85;;;0.50;;
68457;SDS011;65384;52.016;5.428;2023-08-08T09:40:23;1.95;;;0.60;;
68457;SDS011;65384;52.016;5.428;2023-08-08T09:42:50;0.85;;;0.50;;
68457;SDS011;65384;52.016;5.428;2023-08-08T09:45:16;0.50;;;0.50;;
68457;SDS011;65384;52.016;5.428;2023-08-08T09:47:41;2.78;;;0.82;;
68457;SDS011;65384;52.016;5.428;2023-08-08T09:50:07;1.08;;;0.55;;
68457;SDS011;65384;52.016;5.428;2023-08-08T09:52:33;2.45;;;0.68;;
68457;SDS011;65384;52.016;5.428;2023-08-08T09:54:59;0.70;;;0.60;;
68457;SDS011;65384;52.016;5.428;2023-08-08T09:57:25;3.17;;;0.65;;
68457;SDS011;65384;52.016;5.428;2023-08-08T09:59:51;2.38;;;0.70;;
68457;SDS011;65384;52.016;5.428;2023-08-08T10:02:17;3.47;;;0.60;;
68457;SDS011;65384;52.016;5.428;2023-08-08T10:04:44;2.13;;;0.70;;
68457;SDS011;65384;52.016;5.428;2023-08-08T10:07:09;2.53;;;0.70;;
68457;SDS011;65384;52.016;5.428;2023-08-08T10:09:35;1.42;;;0.70;;
68457;SDS011;65384;52.016;5.428;2023-08-08T10:12:02;0.55;;;0.50;;
68457;SDS011;65384;52.016;5.428;2023-08-08T10:14:31;0.98;;;0.60;;
68457;SDS011;65384;52.016;5.428;2023-08-08T10:16:57;1.80;;;0.70;;
68457;SDS011;65384;52.016;5.428;2023-08-08T10:19:23;2.38;;;0.80;;
68457;SDS011;65384;52.016;5.428;2023-08-08T10:21:54;0.95;;;0.70;;
68457;SDS011;65384;52.016;5.428;2023-08-08T10:24:21;2.55;;;0.77;;
68457;SDS011;65384;52.016;5.428;2023-08-08T10:29:23;1.63;;;0.80;;
68457;SDS011;65384;52.016;5.428;2023-08-08T10:34:42;1.08;;;0.80;;
68457;SDS011;65384;52.016;5.428;2023-08-08T10:37:14;1.52;;;0.88;;
68457;SDS011;65384;52.016;5.428;2023-08-08T10:39:59;1.00;;;0.70;;
68457;SDS011;65384;52.016;5.428;2023-08-08T10:42:30;1.75;;;0.80;;
68457;SDS011;65384;52.016;5.428;2023-08-08T10:44:56;0.68;;;0.68;;
68457;SDS011;65384;52.016;5.428;2023-08-08T10:47:31;1.77;;;0.90;;
68457;SDS011;65384;52.016;5.428;2023-08-08T10:50:02;2.53;;;0.80;;
68457;SDS011;65384;52.016;5.428;2023-08-08T10:52:30;1.67;;;0.80;;
68457;SDS011;65384;52.016;5.428;2023-08-08T10:54:55;1.42;;;0.70;;
68457;SDS011;65384;52.016;5.428;2023-08-08T10:57:24;2.40;;;0.63;;
68457;SDS011;65384;52.016;5.428;2023-08-08T10:59:49;1.65;;;0.73;;
68457;SDS011;65384;52.016;5.428;2023-08-08T11:02:15;2.80;;;0.90;;
68457;SDS011;65384;52.016;5.428;2023-08-08T11:04:41;3.08;;;0.70;;
68457;SDS011;65384;52.016;5.428;2023-08-08T11:07:06;4.55;;;0.80;;
68457;SDS011;65384;52.016;5.428;2023-08-08T11:09:32;3.47;;;0.70;;
68457;SDS011;65384;52.016;5.428;2023-08-08T11:11:57;2.85;;;0.80;;
68457;SDS011;65384;52.016;5.428;2023-08-08T11:14:23;1.17;;;0.80;;
68457;SDS011;65384;52.016;5.428;2023-08-08T11:16:49;1.50;;;0.90;;
68457;SDS011;65384;52.016;5.428;2023-08-08T11:19:16;0.80;;;0.60;;
68457;SDS011;65384;52.016;5.428;2023-08-08T11:21:42;1.50;;;0.70;;
68457;SDS011;65384;52.016;5.428;2023-08-08T11:24:08;1.02;;;0.70;;
68457;SDS011;65384;52.016;5.428;2023-08-08T11:26:34;2.50;;;0.77;;
68457;SDS011;65384;52.016;5.428;2023-08-08T11:29:00;1.58;;;0.80;;
68457;SDS011;65384;52.016;5.428;2023-08-08T11:31:27;2.08;;;0.90;;
68457;SDS011;65384;52.016;5.428;2023-08-08T11:33:53;1.75;;;0.80;;
68457;SDS011;65384;52.016;5.428;2023-08-08T11:36:20;1.95;;;0.82;;
68457;SDS011;65384;52.016;5.428;2023-08-08T11:38:47;0.95;;;0.80;;
68457;SDS011;65384;52.016;5.428;2023-08-08T11:41:13;1.10;;;0.70;;
68457;SDS011;65384;52.016;5.428;2023-08-08T11:43:40;1.98;;;0.85;;
68457;SDS011;65384;52.016;5.428;2023-08-08T11:46:09;2.90;;;0.98;;
68457;SDS011;65384;52.016;5.428;2023-08-08T11:48:37;1.95;;;1.02;;
68457;SDS011;65384;52.016;5.428;2023-08-08T11:51:05;3.30;;;1.45;;
68457;SDS011;65384;52.016;5.428;2023-08-08T11:53:31;1.85;;;0.90;;
68457;SDS011;65384;52.016;5.428;2023-08-08T11:55:59;3.75;;;1.10;;
68457;SDS011;65384;52.016;5.428;2023-08-08T11:58:24;1.80;;;0.80;;
68457;SDS011;65384;52.016;5.428;2023-08-08T12:00:50;5.50;;;1.20;;
68457;SDS011;65384;52.016;5.428;2023-08-08T12:03:17;2.05;;;0.90;;
68457;SDS011;65384;52.016;5.428;2023-08-08T12:05:45;2.33;;;0.95;;
68457;SDS011;65384;52.016;5.428;2023-08-08T12:08:10;1.00;;;0.80;;
68457;SDS011;65384;52.016;5.428;2023-08-08T12:10:36;1.80;;;0.80;;
68457;SDS011;65384;52.016;5.428;2023-08-08T12:13:01;1.02;;;0.80;;
68457;SDS011;65384;52.016;5.428;2023-08-08T12:15:33;3.85;;;0.75;;
68457;SDS011;65384;52.016;5.428;2023-08-08T12:18:02;1.38;;;0.80;;
68457;SDS011;65384;52.016;5.428;2023-08-08T12:20:28;3.13;;;0.80;;
68457;SDS011;65384;52.016;5.428;2023-08-08T12:22:56;1.25;;;0.80;;
68457;SDS011;65384;52.016;5.428;2023-08-08T12:25:22;2.38;;;0.90;;
68457;SDS011;65384;52.016;5.428;2023-08-08T12:27:47;3.72;;;1.00;;
68457;SDS011;65384;52.016;5.428;2023-08-08T12:30:12;1.75;;;0.80;;
68457;SDS011;65384;52.016;5.428;2023-08-08T12:32:38;1.85;;;0.80;;
68457;SDS011;65384;52.016;5.428;2023-08-08T12:35:03;1.83;;;0.90;;
68457;SDS011;65384;52.016;5.428;2023-08-08T12:37:29;3.65;;;0.75;;
68457;SDS011;65384;52.016;5.428;2023-08-08T12:39:54;3.70;;;0.95;;
68457;SDS011;65384;52.016;5.428;2023-08-08T12:42:20;1.98;;;1.17;;
68457;SDS011;65384;52.016;5.428;2023-08-08T12:44:46;1.35;;;0.90;;
68457;SDS011;65384;52.016;5.428;2023-08-08T12:47:16;2.38;;;0.80;;
68457;SDS011;65384;52.016;5.428;2023-08-08T12:49:43;5.55;;;0.90;;
68457;SDS011;65384;52.016;5.428;2023-08-08T12:52:08;3.47;;;0.98;;
68457;SDS011;65384;52.016;5.428;2023-08-08T12:54:34;1.42;;;0.90;;
68457;SDS011;65384;52.016;5.428;2023-08-08T12:57:01;2.08;;;0.88;;
68457;SDS011;65384;52.016;5.428;2023-08-08T12:59:26;2.33;;;0.80;;
68457;SDS011;65384;52.016;5.428;2023-08-08T13:01:51;3.42;;;0.82;;
68457;SDS011;65384;52.016;5.428;2023-08-08T13:04:17;1.27;;;0.80;;
68457;SDS011;65384;52.016;5.428;2023-08-08T13:06:42;1.05;;;0.75;;
68457;SDS011;65384;52.016;5.428;2023-08-08T13:09:07;1.95;;;0.77;;
68457;SDS011;65384;52.016;5.428;2023-08-08T13:11:33;3.25;;;0.85;;
68457;SDS011;65384;52.016;5.428;2023-08-08T13:13:58;2.53;;;0.70;;
68457;SDS011;65384;52.016;5.428;2023-08-08T13:16:23;2.70;;;0.60;;
68457;SDS011;65384;52.016;5.428;2023-08-08T13:18:49;1.77;;;0.90;;
68457;SDS011;65384;52.016;5.428;2023-08-08T13:21:14;1.92;;;0.60;;
68457;SDS011;65384;52.016;5.428;2023-08-08T13:23:41;2.58;;;0.80;;
68457;SDS011;65384;52.016;5.428;2023-08-08T13:26:07;2.30;;;0.80;;
68457;SDS011;65384;52.016;5.428;2023-08-08T13:28:32;2.10;;;0.80;;
68457;SDS011;65384;52.016;5.428;2023-08-08T13:30:58;4.78;;;0.73;;
68457;SDS011;65384;52.016;5.428;2023-08-08T13:33:23;2.55;;;0.98;;
68457;SDS011;65384;52.016;5.428;2023-08-08T13:35:49;3.78;;;0.95;;
68457;SDS011;65384;52.016;5.428;2023-08-08T13:38:14;2.10;;;0.80;;
68457;SDS011;65384;52.016;5.428;2023-08-08T13:40:40;3.58;;;0.73;;
68457;SDS011;65384;52.016;5.428;2023-08-08T13:43:06;2.08;;;1.05;;
68457;SDS011;65384;52.016;5.428;2023-08-08T13:45:31;2.05;;;0.80;;
68457;SDS011;65384;52.016;5.428;2023-08-08T13:47:57;1.40;;;0.70;;
68457;SDS011;65384;52.016;5.428;2023-08-08T13:50:22;1.08;;;0.70;;
68457;SDS011;65384;52.016;5.428;2023-08-08T13:52:48;1.65;;;0.80;;
68457;SDS011;65384;52.016;5.428;2023-08-08T13:55:13;1.02;;;0.80;;
68457;SDS011;65384;52.016;5.428;2023-08-08T13:57:38;1.90;;;0.60;;
68457;SDS011;65384;52.016;5.428;2023-08-08T14:00:04;2.35;;;0.93;;
68457;SDS011;65384;52.016;5.428;2023-08-08T14:02:31;1.20;;;0.80;;
68457;SDS011;65384;52.016;5.428;2023-08-08T14:04:57;3.10;;;1.02;;
68457;SDS011;65384;52.016;5.428;2023-08-08T14:07:22;1.45;;;0.77;;
68457;SDS011;65384;52.016;5.428;2023-08-08T14:09:48;3.58;;;0.90;;
68457;SDS011;65384;52.016;5.428;2023-08-08T14:12:13;1.13;;;0.70;;
68457;SDS011;65384;52.016;5.428;2023-08-08T14:14:38;1.25;;;0.70;;
68457;SDS011;65384;52.016;5.428;2023-08-08T14:17:04;0.80;;;0.73;;
68457;SDS011;65384;52.016;5.428;2023-08-08T14:19:29;3.13;;;0.93;;
68457;SDS011;65384;52.016;5.428;2023-08-08T14:21:55;2.13;;;0.82;;
68457;SDS011;65384;52.016;5.428;2023-08-08T14:24:20;4.68;;;0.90;;
68457;SDS011;65384;52.016;5.428;2023-08-08T14:26:45;1.95;;;0.93;;
68457;SDS011;65384;52.016;5.428;2023-08-08T14:29:11;3.03;;;0.80;;
68457;SDS011;65384;52.016;5.428;2023-08-08T14:31:36;2.03;;;0.90;;
68457;SDS011;65384;52.016;5.428;2023-08-08T14:34:01;1.52;;;1.00;;
68457;SDS011;65384;52.016;5.428;2023-08-08T14:36:28;1.83;;;0.80;;
68457;SDS011;65384;52.016;5.428;2023-08-08T14:38:53;1.67;;;0.80;;
68457;SDS011;65384;52.016;5.428;2023-08-08T14:41:19;1.80;;;0.90;;
68457;SDS011;65384;52.016;5.428;2023-08-08T14:43:44;1.20;;;0.85;;
68457;SDS011;65384;52.016;5.428;2023-08-08T14:46:09;1.15;;;0.80;;